createdAt,value
2022-09-15T00:00:44.563Z,16.57
2022-09-15T00:05:46.556Z,16.58
2022-09-15T00:10:48.633Z,16.59
2022-09-15T00:15:50.489Z,16.59
2022-09-15T00:20:52.307Z,16.59
2022-09-15T00:25:54.431Z,16.58
2022-09-15T00:30:55.875Z,16.54
2022-09-15T00:35:57.195Z,16.52
2022-09-15T00:40:58.762Z,16.48
2022-09-15T00:46:00.255Z,16.48
2022-09-15T00:51:01.553Z,16.45
2022-09-15T00:56:03.516Z,16.45
2022-09-15T01:01:05.395Z,16.46
2022-09-15T01:06:07.351Z,16.49
2022-09-15T01:11:08.940Z,16.5
2022-09-15T01:16:15.737Z,16.53
2022-09-15T01:21:12.226Z,16.54
2022-09-15T01:26:13.619Z,16.54
2022-09-15T01:31:15.100Z,16.54
2022-09-15T01:36:16.673Z,16.54
2022-09-15T01:41:18.282Z,16.54
2022-09-15T01:46:20.283Z,16.54
2022-09-15T01:51:21.580Z,16.57
2022-09-15T01:56:23.662Z,16.58
2022-09-15T02:01:25.812Z,16.57
2022-09-15T02:06:27.693Z,16.58
2022-09-15T02:11:29.780Z,16.56
2022-09-15T02:16:31.484Z,16.57
2022-09-15T02:21:33.620Z,16.61
2022-09-15T02:26:35.484Z,16.67
2022-09-15T02:31:37.205Z,16.69
2022-09-15T02:36:38.995Z,16.71
2022-09-15T02:41:40.565Z,16.76
2022-09-15T02:46:41.894Z,16.76
2022-09-15T02:51:43.843Z,16.79
2022-09-15T02:56:45.484Z,16.81
2022-09-15T03:01:47.638Z,16.82
2022-09-15T03:06:49.524Z,16.83
2022-09-15T03:11:50.975Z,16.82
2022-09-15T03:16:52.927Z,16.82
2022-09-15T03:21:54.348Z,16.85
2022-09-15T03:26:56.241Z,16.84
2022-09-15T03:31:58.297Z,16.85
2022-09-15T03:37:00.181Z,16.86
2022-09-15T03:42:01.765Z,16.87
2022-09-15T03:47:03.037Z,16.87
2022-09-15T03:52:04.412Z,16.86
2022-09-15T03:57:06.538Z,16.83
2022-09-15T04:02:07.923Z,16.81
2022-09-15T04:07:09.508Z,16.77
2022-09-15T04:12:10.915Z,16.73
2022-09-15T04:17:12.835Z,16.71
2022-09-15T04:22:17.785Z,16.7
2022-09-15T04:27:16.107Z,16.68
2022-09-15T04:32:17.694Z,16.68
2022-09-15T04:37:19.402Z,16.65
2022-09-15T04:42:21.450Z,16.65
2022-09-15T04:47:22.746Z,16.68
2022-09-15T04:52:24.686Z,16.7
2022-09-15T04:57:26.659Z,16.75
2022-09-15T05:02:28.493Z,16.76
2022-09-15T05:07:30.614Z,16.78
2022-09-15T05:12:32.689Z,16.81
2022-09-15T05:17:34.475Z,16.82
2022-09-15T05:22:39.571Z,16.85
2022-09-15T05:27:37.725Z,16.92
2022-09-15T05:32:39.326Z,16.96
2022-09-15T05:37:48.953Z,16.98
2022-09-15T05:42:42.336Z,17
2022-09-15T05:47:43.884Z,17.03
2022-09-15T05:52:45.179Z,17.04
2022-09-15T05:57:46.807Z,17.04
2022-09-15T06:02:48.873Z,17.04
2022-09-15T06:07:50.060Z,17.06
2022-09-15T06:12:52.190Z,17.09
2022-09-15T06:17:53.945Z,17.12
2022-09-15T06:22:55.786Z,17.16
2022-09-15T06:27:57.066Z,17.21
2022-09-15T06:32:58.483Z,17.24
2022-09-15T06:38:00.296Z,17.29
2022-09-15T06:43:01.904Z,17.33
2022-09-15T06:48:23.251Z,17.37
2022-09-15T06:53:05.452Z,17.37
2022-09-15T06:58:06.892Z,17.4
2022-09-15T07:03:08.936Z,17.43
2022-09-15T07:08:10.490Z,17.43
2022-09-15T07:13:11.843Z,17.43
2022-09-15T07:18:13.388Z,17.45
2022-09-15T07:23:15.229Z,17.45
2022-09-15T07:28:16.617Z,17.45
2022-09-15T07:33:17.828Z,17.46
2022-09-15T07:38:19.858Z,17.53
2022-09-15T07:43:21.285Z,17.62
2022-09-15T07:48:26.423Z,17.77
2022-09-15T07:53:25.498Z,17.93
2022-09-15T07:58:27.120Z,18.08
2022-09-15T08:03:28.575Z,18.29
2022-09-15T08:08:29.873Z,18.4
2022-09-15T08:13:31.135Z,18.58
2022-09-15T08:18:32.384Z,18.68
2022-09-15T08:23:34.059Z,18.82
2022-09-15T08:28:35.492Z,18.96
2022-09-15T08:33:38.937Z,19.25
2022-09-15T08:38:38.796Z,19.41
2022-09-15T08:43:40.863Z,19.29
2022-09-15T08:48:42.673Z,19.12
2022-09-15T08:53:44.958Z,19.1
2022-09-15T08:58:46.317Z,19.15
2022-09-15T09:03:47.908Z,19.14
2022-09-15T09:08:49.815Z,19.1
2022-09-15T09:13:52.013Z,19.14
2022-09-15T09:18:53.526Z,19.09
2022-09-15T09:23:55.208Z,19.1
2022-09-15T09:28:57.250Z,19.19
2022-09-15T09:33:58.781Z,19.51
2022-09-15T09:39:00.649Z,20.08
2022-09-15T09:44:02.873Z,20.63
2022-09-15T09:49:04.652Z,21.06
2022-09-15T09:54:06.274Z,21.08
2022-09-15T09:59:07.749Z,21.42
2022-09-15T10:04:09.357Z,21.67
2022-09-15T10:09:10.770Z,21.36
2022-09-15T10:14:12.807Z,21.22
2022-09-15T10:19:14.570Z,21.11
2022-09-15T10:24:18.150Z,21
2022-09-15T10:29:18.067Z,20.73
2022-09-15T10:34:20.153Z,20.78
2022-09-15T10:39:21.691Z,21.39
2022-09-15T10:44:23.244Z,21.43
2022-09-15T10:49:25.301Z,21.48
2022-09-15T10:54:27.219Z,21.25
2022-09-15T10:59:29.464Z,20.99
2022-09-15T11:04:30.602Z,20.82
2022-09-15T11:09:31.939Z,21.04
2022-09-15T11:14:40.164Z,21.34
2022-09-15T11:19:41.479Z,21.26
2022-09-15T11:24:42.693Z,21.08
2022-09-15T11:29:44.890Z,21.1
2022-09-15T11:34:46.537Z,21.07
2022-09-15T11:39:47.792Z,21.01
2022-09-15T11:44:49.474Z,21.25
2022-09-15T11:49:51.257Z,21.32
2022-09-15T11:54:52.903Z,21.22
2022-09-15T11:59:54.682Z,21.12
2022-09-15T12:04:55.860Z,21.19
2022-09-15T12:09:57.309Z,21.13
2022-09-15T12:14:58.735Z,21
2022-09-15T12:19:59.985Z,20.93
2022-09-15T12:25:02.126Z,20.73
2022-09-15T12:30:03.371Z,20.49
2022-09-15T12:35:05.309Z,20.45
2022-09-15T12:40:07.111Z,20.41
2022-09-15T12:45:08.646Z,20.32
2022-09-15T12:50:10.032Z,20.25
2022-09-15T12:55:11.644Z,20.11
2022-09-15T13:00:13.688Z,20.06
2022-09-15T13:05:15.621Z,20.07
2022-09-15T13:10:16.830Z,20.28
2022-09-15T13:15:18.833Z,20.62
2022-09-15T13:20:20.876Z,20.63
2022-09-15T13:25:22.577Z,20.57
2022-09-15T13:30:24.251Z,20.56
2022-09-15T13:35:26.640Z,20.57
2022-09-15T13:40:27.987Z,20.48
2022-09-15T13:45:29.229Z,20.35
2022-09-15T13:50:30.788Z,20.26
2022-09-15T13:55:32.471Z,20.2
2022-09-15T14:00:34.366Z,20.16
2022-09-15T14:05:35.615Z,20.12
2022-09-15T14:10:36.896Z,20.1
2022-09-15T14:15:38.648Z,20.04
2022-09-15T14:20:39.958Z,19.85
2022-09-15T14:25:41.668Z,19.64
2022-09-15T14:30:43.467Z,18.99
2022-09-15T14:35:45.011Z,18.59
2022-09-15T14:40:46.976Z,18.02
2022-09-15T14:45:56.113Z,17.67
2022-09-15T14:50:49.843Z,17.24
2022-09-15T14:55:51.348Z,17.04
2022-09-15T15:00:53.557Z,16.86
2022-09-15T15:05:58.145Z,16.66
2022-09-15T15:10:56.525Z,16.7
2022-09-15T15:15:58.354Z,16.73
2022-09-15T15:21:00.429Z,16.7
2022-09-15T15:26:02.445Z,16.69
2022-09-15T15:31:04.476Z,16.69
2022-09-15T15:36:06.575Z,16.59
2022-09-15T15:41:17.435Z,16.33
2022-09-15T15:46:10.497Z,16.27
2022-09-15T15:51:12.057Z,16.1
2022-09-15T15:56:13.518Z,16.16
2022-09-15T16:01:15.130Z,16.14
2022-09-15T16:06:16.462Z,15.96
2022-09-15T16:11:18.190Z,15.8
2022-09-15T16:16:19.824Z,15.5
2022-09-15T16:21:21.602Z,15.37
2022-09-15T16:26:23.183Z,15.14
2022-09-15T16:31:25.166Z,14.97
2022-09-15T16:36:26.606Z,14.87
2022-09-15T16:41:28.107Z,14.53
2022-09-15T16:46:30.182Z,14.32
2022-09-15T16:51:32.009Z,14.22
2022-09-15T16:56:33.852Z,14.12
2022-09-15T17:01:35.383Z,14.21
2022-09-15T17:06:37.185Z,14.14
2022-09-15T17:11:38.768Z,14.09
2022-09-15T17:16:40.107Z,14.06
2022-09-15T17:21:41.543Z,13.98
2022-09-15T17:26:43.533Z,13.93
2022-09-15T17:31:45.503Z,13.9
2022-09-15T17:36:47.035Z,13.84
2022-09-15T17:41:48.487Z,13.82
2022-09-15T17:46:49.874Z,13.77
2022-09-15T17:51:51.798Z,13.74
2022-09-15T17:56:53.755Z,13.7
2022-09-15T18:01:55.213Z,13.71
2022-09-15T18:06:56.964Z,13.68
2022-09-15T18:11:58.373Z,13.68
2022-09-15T18:17:00.455Z,13.64
2022-09-15T18:22:02.346Z,13.58
2022-09-15T18:27:04.535Z,13.55
2022-09-15T18:32:05.745Z,13.53
2022-09-15T18:37:07.064Z,13.53
2022-09-15T18:42:08.552Z,13.53
2022-09-15T18:47:10.315Z,13.5
2022-09-15T18:52:12.164Z,13.48
2022-09-15T18:57:14.217Z,13.46
2022-09-15T19:02:16.131Z,13.46
2022-09-15T19:07:17.885Z,13.45
2022-09-15T19:17:21.851Z,13.43
2022-09-15T19:22:23.118Z,13.4
2022-09-15T19:27:29.770Z,13.38
2022-09-15T19:32:26.558Z,13.35
2022-09-15T19:37:28.394Z,13.28
2022-09-15T19:42:30.145Z,13.22
2022-09-15T19:47:31.562Z,13.11
2022-09-15T19:52:32.964Z,12.99
2022-09-15T19:57:34.629Z,12.93
2022-09-15T20:02:36.022Z,12.88
2022-09-15T20:07:37.507Z,12.81
2022-09-15T20:12:39.537Z,12.78
2022-09-15T20:17:46.235Z,12.75
2022-09-15T20:22:42.853Z,12.71
2022-09-15T20:27:44.662Z,12.69
2022-09-15T20:32:46.474Z,12.68
2022-09-15T20:37:48.253Z,12.67
2022-09-15T20:42:50.227Z,12.68
2022-09-15T20:47:51.869Z,12.69
2022-09-15T20:52:53.629Z,12.69
2022-09-15T20:57:55.460Z,12.69
2022-09-15T21:02:56.811Z,12.7
2022-09-15T21:07:58.275Z,12.68
2022-09-15T21:13:00.356Z,12.69
2022-09-15T21:18:01.666Z,12.7
2022-09-15T21:23:03.169Z,12.68
2022-09-15T21:28:04.876Z,12.64
2022-09-15T21:33:06.625Z,12.61
2022-09-15T21:38:08.729Z,12.59
2022-09-15T21:43:10.844Z,12.58
2022-09-15T21:48:12.064Z,12.57
2022-09-15T21:53:14.098Z,12.55
2022-09-15T21:58:15.927Z,12.55
2022-09-15T22:13:21.026Z,12.48
2022-09-15T22:18:22.241Z,12.46
2022-09-15T22:23:24.010Z,12.43
2022-09-15T22:28:25.699Z,12.35
2022-09-15T22:33:27.461Z,12.31
2022-09-15T22:38:29.111Z,12.26
2022-09-15T22:43:30.621Z,12.21
2022-09-15T22:48:32.527Z,12.19
2022-09-15T22:53:34.493Z,12.12
2022-09-15T22:58:36.673Z,12.09
2022-09-15T23:03:38.611Z,12.04
2022-09-15T23:08:40.760Z,11.98
2022-09-15T23:13:42.572Z,11.93
2022-09-15T23:18:43.992Z,11.89
2022-09-15T23:23:46.011Z,11.84
2022-09-15T23:28:47.457Z,11.8
2022-09-15T23:33:49.028Z,11.74
2022-09-15T23:38:50.369Z,11.67
2022-09-15T23:43:51.923Z,11.6
2022-09-15T23:48:53.850Z,11.56
2022-09-15T23:53:55.752Z,11.52
2022-09-15T23:58:57.401Z,11.5
